Time;durP1;ratioP1;P1;durP2;ratioP2;P2;SDS_P1;SDS_P2;PMS_P1;PMS_P2;Temp;Humidity;BMP_temperature;BMP_pressure;BME280_temperature;BME280_humidity;BME280_pressure;Samples;Min_cycle;Max_cycle;Signal;HPM_P1;HPM_P2
2021/07/24 00:02:04;;;;;;;14.37;12.97;;;18.20;99.90;;;;;;5018005;28;20639;-94
2021/07/24 00:04:31;;;;;;;13.07;11.87;;;18.20;99.90;;;;;;5025411;28;20617;-93
2021/07/24 00:07:00;;;;;;;13.30;12.00;;;18.20;99.90;;;;;;5026410;28;20634;-94
2021/07/24 00:09:28;;;;;;;13.50;12.30;;;18.20;99.90;;;;;;5022285;28;20649;-94
2021/07/24 00:11:56;;;;;;;12.80;11.67;;;18.20;99.90;;;;;;5028266;28;20662;-94
2021/07/24 00:14:22;;;;;;;13.10;12.00;;;18.20;99.90;;;;;;5025630;28;20685;-93
2021/07/24 00:16:51;;;;;;;14.03;12.83;;;18.20;99.90;;;;;;5034857;28;20629;-92
2021/07/24 00:19:17;;;;;;;13.40;12.30;;;18.20;99.90;;;;;;5034465;28;20635;-93
2021/07/24 00:21:44;;;;;;;12.60;11.27;;;18.20;99.90;;;;;;5034810;28;21174;-93
2021/07/24 00:24:11;;;;;;;13.57;12.27;;;18.10;99.90;;;;;;5024941;28;21228;-93
2021/07/24 00:26:38;;;;;;;12.93;11.83;;;18.10;99.90;;;;;;5020106;28;20634;-93
2021/07/24 00:29:05;;;;;;;13.73;12.43;;;18.10;99.90;;;;;;5023890;28;20771;-92
2021/07/24 00:31:32;;;;;;;14.73;13.27;;;18.10;99.90;;;;;;5026290;28;20666;-93
2021/07/24 00:34:01;;;;;;;15.10;13.57;;;18.00;99.90;;;;;;5027928;28;20955;-93
2021/07/24 00:36:28;;;;;;;14.13;12.93;;;18.00;99.90;;;;;;5029026;28;20666;-93
2021/07/24 00:38:54;;;;;;;16.03;14.53;;;18.00;99.90;;;;;;5028010;28;20635;-93
2021/07/24 00:41:27;;;;;;;15.00;13.60;;;17.90;99.90;;;;;;5021307;28;20654;-94
2021/07/24 00:43:55;;;;;;;14.27;13.07;;;17.90;99.90;;;;;;5021989;28;21129;-93
2021/07/24 00:46:24;;;;;;;15.23;13.73;;;17.90;99.90;;;;;;5029418;28;20630;-93
2021/07/24 00:48:52;;;;;;;15.77;14.30;;;17.90;99.90;;;;;;5027328;28;20654;-93
2021/07/24 00:51:28;;;;;;;15.80;14.33;;;17.70;99.90;;;;;;5024697;28;20682;-94
2021/07/24 00:53:55;;;;;;;17.33;14.43;;;17.60;99.90;;;;;;5024498;28;20649;-93
2021/07/24 00:56:25;;;;;;;15.23;13.77;;;17.60;99.90;;;;;;5020637;28;21146;-93
2021/07/24 00:58:52;;;;;;;13.77;12.57;;;17.60;99.90;;;;;;5025164;28;20634;-94
2021/07/24 01:01:19;;;;;;;16.00;14.60;;;17.70;99.90;;;;;;5022480;28;21273;-94
2021/07/24 01:03:45;;;;;;;15.60;14.10;;;17.70;99.90;;;;;;5023269;28;21174;-94
2021/07/24 01:06:14;;;;;;;15.03;13.73;;;17.70;99.90;;;;;;5025247;28;20617;-93
2021/07/24 01:08:43;;;;;;;15.30;13.80;;;17.60;99.90;;;;;;5021226;28;20665;-94
2021/07/24 01:11:11;;;;;;;14.70;13.50;;;17.60;99.90;;;;;;5021569;28;20678;-93
2021/07/24 01:13:39;;;;;;;13.90;12.70;;;17.60;99.90;;;;;;5021626;28;20627;-93
2021/07/24 01:16:07;;;;;;;15.07;13.77;;;17.50;99.90;;;;;;5022332;28;20623;-93
2021/07/24 01:18:34;;;;;;;14.80;13.53;;;17.50;99.90;;;;;;5019727;28;20619;-93
2021/07/24 01:21:05;;;;;;;13.57;12.33;;;17.50;99.90;;;;;;5018601;28;20674;-93
2021/07/24 01:23:34;;;;;;;13.00;11.87;;;17.50;99.90;;;;;;5030828;28;20626;-96
2021/07/24 01:26:01;;;;;;;13.10;12.10;;;17.50;99.90;;;;;;5029272;28;20633;-96
2021/07/24 01:28:30;;;;;;;13.67;12.57;;;17.60;99.90;;;;;;5028296;28;20713;-96
2021/07/24 01:30:58;;;;;;;15.10;13.67;;;17.50;99.90;;;;;;5026808;28;20663;-96
2021/07/24 01:33:25;;;;;;;13.57;12.50;;;17.40;99.90;;;;;;5028586;28;20824;-96
2021/07/24 01:35:52;;;;;;;14.53;13.23;;;17.40;99.90;;;;;;5018531;28;20766;-96
2021/07/24 01:38:21;;;;;;;15.80;14.30;;;17.40;99.90;;;;;;5023276;28;20656;-96
2021/07/24 01:40:59;;;;;;;13.57;12.40;;;17.40;99.90;;;;;;5029112;28;20673;-96
2021/07/24 01:43:43;;;;;;;13.43;12.43;;;17.40;99.90;;;;;;5054460;28;20621;-96
2021/07/24 01:46:13;;;;;;;13.87;12.57;;;17.40;99.90;;;;;;5053709;28;20657;-96
2021/07/24 01:48:52;;;;;;;14.60;13.40;;;17.40;99.90;;;;;;5053819;28;20634;-96
2021/07/24 01:54:29;;;;;;;14.90;13.50;;;17.40;99.90;;;;;;5048808;28;20634;-96
2021/07/24 01:57:11;;;;;;;14.90;13.60;;;17.40;99.90;;;;;;5051188;28;20634;-96
2021/07/24 01:59:49;;;;;;;13.73;12.43;;;17.40;99.90;;;;;;5046724;28;20630;-96
2021/07/24 02:02:20;;;;;;;14.73;13.47;;;17.30;99.90;;;;;;5052089;28;20649;-96
2021/07/24 02:11:33;;;;;;;16.47;14.93;;;17.20;99.90;;;;;;5245280;23;20721;-96
2021/07/24 02:14:04;;;;;;;16.47;14.90;;;17.30;99.90;;;;;;5033137;28;20996;-96
2021/07/24 02:19:16;;;;;;;15.80;14.33;;;17.40;99.90;;;;;;5029357;28;20663;-96
2021/07/24 02:24:17;;;;;;;17.30;15.80;;;17.40;99.90;;;;;;4977351;28;20674;-96
2021/07/24 02:26:44;;;;;;;20.13;15.83;;;17.40;99.90;;;;;;4970638;28;20753;-96
2021/07/24 02:29:13;;;;;;;17.30;15.80;;;17.40;99.90;;;;;;4966987;28;20656;-96
2021/07/24 02:31:40;;;;;;;16.87;15.27;;;17.40;99.90;;;;;;4967003;28;20732;-96
2021/07/24 02:34:10;;;;;;;18.10;16.50;;;17.40;99.90;;;;;;4969365;28;20665;-96
2021/07/24 02:36:37;;;;;;;18.20;16.20;;;17.50;99.90;;;;;;4967331;28;20639;-96
2021/07/24 02:39:04;;;;;;;18.10;16.20;;;17.50;99.90;;;;;;4971788;28;21227;-96
2021/07/24 02:41:31;;;;;;;17.33;15.63;;;17.50;99.90;;;;;;4978108;28;20999;-96
2021/07/24 02:43:58;;;;;;;17.23;15.57;;;17.60;99.90;;;;;;4969854;28;20676;-95
2021/07/24 02:46:27;;;;;;;17.83;16.17;;;17.50;99.90;;;;;;4974184;28;20744;-96
2021/07/24 02:48:55;;;;;;;17.03;15.53;;;17.60;99.90;;;;;;4964499;28;20637;-96
2021/07/24 02:51:22;;;;;;;18.43;16.50;;;17.60;99.90;;;;;;4971236;28;20742;-96
2021/07/24 02:53:52;;;;;;;17.53;15.93;;;17.60;99.90;;;;;;4980282;28;20728;-96
2021/07/24 02:56:32;;;;;;;16.83;15.30;;;17.60;99.90;;;;;;4978274;28;20670;-96
2021/07/24 02:59:32;;;;;;;16.37;14.87;;;17.70;99.90;;;;;;4984306;28;20653;-96
2021/07/24 03:11:09;;;;;;;17.83;16.17;;;17.70;99.90;;;;;;5053064;28;20685;-96
2021/07/24 03:13:41;;;;;;;17.00;15.50;;;17.70;99.90;;;;;;5052020;28;20658;-96
2021/07/24 03:18:53;;;;;;;22.20;16.03;;;17.70;99.90;;;;;;5041055;28;20647;-96
2021/07/24 03:38:10;;;;;;;17.53;14.27;;;17.70;99.90;;;;;;4960091;29;20575;-96
2021/07/24 03:53:30;;;;;;;15.37;13.97;;;17.70;99.90;;;;;;5040170;28;20662;-96
2021/07/24 03:56:01;;;;;;;15.20;13.80;;;17.80;99.90;;;;;;5025108;28;20658;-96
2021/07/24 04:15:04;;;;;;;13.47;12.43;;;17.90;99.90;;;;;;5020446;28;20639;-96
2021/07/24 04:17:34;;;;;;;14.60;13.20;;;17.90;99.90;;;;;;5024970;28;20623;-96
2021/07/24 04:42:36;;;;;;;13.17;11.97;;;18.20;99.90;;;;;;5176674;23;20682;-95
2021/07/24 04:45:04;;;;;;;15.37;13.93;;;18.20;99.90;;;;;;5037979;28;20621;-95
2021/07/24 04:47:33;;;;;;;14.60;13.43;;;18.20;99.90;;;;;;5037951;28;20636;-95
2021/07/24 04:49:59;;;;;;;15.50;14.20;;;18.20;99.90;;;;;;5025875;28;20626;-96
2021/07/24 04:52:29;;;;;;;15.37;13.27;;;18.30;99.90;;;;;;5029944;28;20663;-90
2021/07/24 04:54:57;;;;;;;15.83;14.33;;;18.30;99.90;;;;;;5019875;28;20625;-93
2021/07/24 04:57:25;;;;;;;16.00;14.53;;;18.40;99.90;;;;;;5028934;28;20642;-92
2021/07/24 04:59:53;;;;;;;15.50;13.40;;;18.40;99.90;;;;;;5035909;28;20626;-92
2021/07/24 05:02:21;;;;;;;14.77;13.57;;;18.40;99.90;;;;;;5027456;28;20656;-93
2021/07/24 05:04:50;;;;;;;14.70;13.20;;;18.50;99.90;;;;;;5024767;28;20623;-92
2021/07/24 05:07:18;;;;;;;13.77;12.57;;;18.50;99.90;;;;;;5028235;28;20627;-93
2021/07/24 05:09:46;;;;;;;14.23;12.90;;;18.50;99.90;;;;;;5024249;28;20942;-92
2021/07/24 05:12:12;;;;;;;14.20;12.90;;;18.50;99.90;;;;;;5022417;28;20654;-92
2021/07/24 05:14:39;;;;;;;15.03;13.47;;;18.50;99.90;;;;;;5026345;28;20586;-92
2021/07/24 05:17:09;;;;;;;15.67;14.17;;;18.50;99.90;;;;;;5026561;28;20619;-91
2021/07/24 05:19:37;;;;;;;14.33;12.80;;;18.60;99.90;;;;;;5021478;28;20657;-91
2021/07/24 05:22:04;;;;;;;14.17;12.87;;;18.60;99.90;;;;;;5022767;28;20650;-92
2021/07/24 05:24:31;;;;;;;14.57;13.27;;;18.70;99.90;;;;;;5013101;28;20635;-91
2021/07/24 05:26:58;;;;;;;16.33;13.70;;;18.70;99.90;;;;;;5024121;28;20625;-92
2021/07/24 05:29:25;;;;;;;15.77;14.30;;;18.80;99.90;;;;;;5024486;28;20976;-92
2021/07/24 05:31:52;;;;;;;15.30;13.90;;;18.90;99.90;;;;;;5021573;28;20655;-92
2021/07/24 05:34:20;;;;;;;13.87;12.70;;;18.90;99.90;;;;;;5028164;28;21269;-92
2021/07/24 05:36:47;;;;;;;13.20;11.30;;;18.90;99.90;;;;;;5019570;28;20647;-92
2021/07/24 05:39:14;;;;;;;13.47;12.17;;;19.00;99.90;;;;;;5025963;28;20691;-92
2021/07/24 05:41:40;;;;;;;18.23;12.90;;;19.00;99.90;;;;;;5022398;28;20659;-92
2021/07/24 05:44:07;;;;;;;16.77;12.53;;;19.20;99.90;;;;;;5024223;28;20630;-91
2021/07/24 05:46:34;;;;;;;12.07;10.87;;;19.30;99.90;;;;;;5022754;28;20610;-92
2021/07/24 05:49:02;;;;;;;14.80;13.40;;;19.30;99.90;;;;;;5028687;28;20633;-92
2021/07/24 05:51:30;;;;;;;13.97;12.10;;;19.50;99.90;;;;;;5003782;28;20647;-93
2021/07/24 05:53:57;;;;;;;14.40;13.00;;;19.60;99.90;;;;;;5028347;28;20673;-92
2021/07/24 05:56:23;;;;;;;13.80;12.43;;;19.70;99.90;;;;;;5020990;28;20635;-92
2021/07/24 05:58:50;;;;;;;15.73;14.23;;;19.90;99.90;;;;;;5021438;28;20612;-92
2021/07/24 06:01:17;;;;;;;16.30;14.90;;;20.10;99.90;;;;;;5027648;28;20650;-91
2021/07/24 06:03:44;;;;;;;13.40;12.00;;;20.20;99.90;;;;;;5026693;28;20623;-89
2021/07/24 06:06:11;;;;;;;14.87;13.47;;;20.30;99.90;;;;;;5024264;28;20638;-88
2021/07/24 06:08:39;;;;;;;13.83;12.50;;;20.30;99.90;;;;;;5021787;28;20625;-89
2021/07/24 06:11:06;;;;;;;13.77;12.47;;;20.30;99.90;;;;;;5027144;28;20657;-88
2021/07/24 06:13:33;;;;;;;14.97;13.17;;;20.40;99.90;;;;;;5026032;28;20662;-88
2021/07/24 06:16:00;;;;;;;13.30;12.00;;;20.30;99.90;;;;;;5026928;28;21114;-89
2021/07/24 06:18:27;;;;;;;13.40;12.20;;;20.30;99.90;;;;;;5019504;28;20627;-89
2021/07/24 06:20:54;;;;;;;12.90;11.70;;;20.30;99.90;;;;;;5026333;28;21032;-90
2021/07/24 06:23:21;;;;;;;16.57;13.23;;;20.30;99.90;;;;;;5019054;28;20618;-89
2021/07/24 06:25:50;;;;;;;13.73;12.63;;;20.30;99.90;;;;;;5022183;28;20630;-89
2021/07/24 06:28:17;;;;;;;15.43;13.93;;;20.20;99.90;;;;;;5024866;28;20958;-89
2021/07/24 06:30:46;;;;;;;15.60;14.10;;;20.20;99.90;;;;;;5023149;28;21084;-89
2021/07/24 06:33:13;;;;;;;14.87;13.47;;;20.20;99.90;;;;;;5021939;28;20776;-90
2021/07/24 06:35:40;;;;;;;16.80;15.30;;;20.30;99.90;;;;;;5028448;28;20633;-89
2021/07/24 06:38:08;;;;;;;14.90;13.40;;;20.40;99.90;;;;;;5021450;28;20834;-89
2021/07/24 06:40:35;;;;;;;13.87;12.33;;;20.50;99.90;;;;;;5022760;28;20685;-89
2021/07/24 06:43:04;;;;;;;13.97;12.47;;;20.50;99.90;;;;;;5021816;28;21285;-89
2021/07/24 06:45:31;;;;;;;15.17;13.50;;;20.50;99.90;;;;;;5031275;28;20626;-89
2021/07/24 06:47:58;;;;;;;16.67;15.07;;;20.40;99.90;;;;;;5020965;28;20623;-89
2021/07/24 06:50:25;;;;;;;15.07;13.83;;;20.40;99.90;;;;;;5018240;28;20660;-89
2021/07/24 06:52:52;;;;;;;14.67;13.23;;;20.60;99.90;;;;;;5026726;28;21077;-89
2021/07/24 06:55:18;;;;;;;18.10;14.40;;;20.70;99.90;;;;;;5026856;28;20664;-88
2021/07/24 06:57:45;;;;;;;16.53;15.00;;;20.70;99.90;;;;;;5025837;28;21122;-89
2021/07/24 07:00:14;;;;;;;16.20;14.67;;;20.70;99.90;;;;;;5032691;28;20622;-88
2021/07/24 07:02:41;;;;;;;16.57;14.60;;;20.80;99.90;;;;;;5020851;28;20619;-89
2021/07/24 07:05:09;;;;;;;14.73;13.20;;;20.80;99.90;;;;;;5012632;28;20697;-88
2021/07/24 07:07:35;;;;;;;14.90;13.37;;;20.90;99.90;;;;;;5022593;28;20651;-88
2021/07/24 07:10:02;;;;;;;14.57;13.27;;;20.90;99.90;;;;;;5020841;28;20975;-89
2021/07/24 07:12:29;;;;;;;14.03;12.63;;;21.00;99.90;;;;;;5028561;28;20632;-88
2021/07/24 07:14:58;;;;;;;17.20;15.50;;;21.10;99.90;;;;;;5024465;28;21213;-88
2021/07/24 07:17:26;;;;;;;17.20;15.60;;;21.10;99.90;;;;;;5024518;28;20625;-88
2021/07/24 07:19:53;;;;;;;14.20;12.80;;;21.20;99.90;;;;;;5018303;28;20626;-88
2021/07/24 07:22:19;;;;;;;16.47;14.97;;;21.20;99.90;;;;;;5025100;28;20667;-90
2021/07/24 07:24:46;;;;;;;16.47;14.70;;;21.20;99.90;;;;;;5019523;28;20588;-91
2021/07/24 07:27:13;;;;;;;15.43;14.13;;;21.40;99.90;;;;;;5025035;28;21000;-91
2021/07/24 07:29:40;;;;;;;15.47;14.27;;;21.30;99.90;;;;;;5026993;28;20611;-91
2021/07/24 07:32:07;;;;;;;17.03;15.23;;;21.30;99.90;;;;;;5028589;28;21012;-91
2021/07/24 07:34:36;;;;;;;18.70;14.87;;;21.40;99.90;;;;;;5024166;28;20657;-91
2021/07/24 07:37:04;;;;;;;15.30;14.00;;;21.40;99.90;;;;;;5029893;28;20622;-91
2021/07/24 07:39:31;;;;;;;17.77;13.50;;;21.40;99.90;;;;;;5032896;28;20618;-91
2021/07/24 07:41:58;;;;;;;14.60;13.10;;;21.30;99.90;;;;;;5023337;28;20677;-91
2021/07/24 07:44:25;;;;;;;15.07;13.57;;;21.20;99.90;;;;;;5028115;28;20626;-91
2021/07/24 07:46:52;;;;;;;15.57;13.47;;;21.30;99.90;;;;;;5026162;28;20722;-91
2021/07/24 07:49:19;;;;;;;14.40;13.10;;;21.20;99.90;;;;;;5029233;28;20580;-91
2021/07/24 07:51:47;;;;;;;16.07;14.57;;;21.10;99.90;;;;;;5024869;28;20750;-91
2021/07/24 07:54:14;;;;;;;17.37;15.73;;;21.10;99.90;;;;;;5020170;28;20655;-91
2021/07/24 07:56:41;;;;;;;17.07;15.53;;;21.20;99.90;;;;;;5024811;28;20646;-91
2021/07/24 07:59:08;;;;;;;16.90;13.87;;;21.20;99.90;;;;;;5027978;28;20642;-91
2021/07/24 08:01:35;;;;;;;15.47;13.60;;;21.20;99.90;;;;;;5022156;28;20630;-91
2021/07/24 08:04:04;;;;;;;16.23;13.30;;;21.20;99.90;;;;;;5027423;28;20615;-92
2021/07/24 08:06:31;;;;;;;15.97;14.50;;;21.20;99.90;;;;;;5028008;28;20656;-92
2021/07/24 08:09:00;;;;;;;21.03;14.20;;;21.30;99.90;;;;;;5017339;28;20650;-92
2021/07/24 08:11:28;;;;;;;15.23;13.20;;;21.30;99.90;;;;;;5027232;28;20618;-91
2021/07/24 08:13:56;;;;;;;14.43;12.93;;;21.30;99.90;;;;;;5029463;28;21209;-91
2021/07/24 08:16:23;;;;;;;17.17;15.67;;;21.30;99.90;;;;;;5023956;28;21076;-91
2021/07/24 08:18:49;;;;;;;14.23;12.60;;;21.30;99.90;;;;;;5023881;28;20745;-91
2021/07/24 08:21:16;;;;;;;12.80;11.47;;;21.30;99.90;;;;;;5023572;28;21162;-91
2021/07/24 08:23:43;;;;;;;15.30;14.00;;;21.30;99.90;;;;;;5027511;28;20641;-91
2021/07/24 08:26:12;;;;;;;15.10;13.43;;;21.20;99.90;;;;;;5027570;28;20650;-91
2021/07/24 08:28:39;;;;;;;17.43;14.87;;;21.20;99.90;;;;;;5012172;28;20649;-91
2021/07/24 08:31:06;;;;;;;17.23;13.73;;;21.20;99.90;;;;;;5021547;28;20657;-92
2021/07/24 08:33:34;;;;;;;16.07;13.80;;;21.30;99.90;;;;;;5035989;28;20650;-90
2021/07/24 08:36:01;;;;;;;13.83;12.70;;;21.50;99.90;;;;;;5036834;28;20629;-90
2021/07/24 08:38:28;;;;;;;14.30;12.90;;;21.50;99.90;;;;;;5035721;28;21244;-89
2021/07/24 08:40:55;;;;;;;17.47;15.87;;;21.60;99.90;;;;;;5027751;28;20667;-91
2021/07/24 08:43:23;;;;;;;16.13;14.57;;;21.70;99.90;;;;;;5028366;28;20627;-92
2021/07/24 08:45:50;;;;;;;15.80;12.80;;;21.90;99.90;;;;;;5028513;28;20625;-90
2021/07/24 08:48:17;;;;;;;14.63;13.13;;;22.10;99.90;;;;;;5036744;28;20635;-91
2021/07/24 08:50:45;;;;;;;22.00;15.00;;;22.30;99.90;;;;;;5035575;28;20657;-91
2021/07/24 08:53:16;;;;;;;13.00;11.80;;;22.50;99.90;;;;;;5028154;28;20638;-91
2021/07/24 08:55:43;;;;;;;12.50;11.30;;;22.70;99.90;;;;;;5031929;28;20657;-91
2021/07/24 08:58:14;;;;;;;13.23;11.40;;;23.00;99.90;;;;;;5025524;28;20743;-91
2021/07/24 09:00:44;;;;;;;14.20;12.80;;;23.30;99.90;;;;;;5032424;28;21102;-91
2021/07/24 09:03:17;;;;;;;29.33;15.43;;;23.50;99.90;;;;;;5020155;28;20631;-91
2021/07/24 09:05:49;;;;;;;23.43;14.40;;;23.60;99.90;;;;;;5029025;28;21008;-91
2021/07/24 09:08:18;;;;;;;15.30;13.80;;;23.70;99.90;;;;;;5019920;28;20583;-91
2021/07/24 09:10:47;;;;;;;15.40;14.20;;;23.70;99.90;;;;;;5025672;28;20731;-91
2021/07/24 09:13:16;;;;;;;14.73;13.33;;;23.60;99.90;;;;;;5028876;28;20623;-91
2021/07/24 09:15:44;;;;;;;14.23;12.93;;;23.70;99.90;;;;;;5036880;28;20634;-91
2021/07/24 09:18:11;;;;;;;14.63;13.27;;;23.80;99.90;;;;;;5045015;28;20632;-91
2021/07/24 09:20:41;;;;;;;150.03;32.13;;;24.10;99.90;;;;;;5053306;28;20663;-91
2021/07/24 09:23:28;;;;;;;17.27;14.30;;;24.30;99.90;;;;;;5052826;28;20615;-91
2021/07/24 09:25:56;;;;;;;16.80;13.40;;;24.20;99.90;;;;;;5049860;28;20619;-91
2021/07/24 09:28:23;;;;;;;14.67;13.17;;;24.40;99.90;;;;;;5044371;28;20654;-91
2021/07/24 09:30:51;;;;;;;15.27;13.30;;;24.80;99.90;;;;;;5046350;28;20662;-92
2021/07/24 09:33:20;;;;;;;20.77;13.67;;;24.70;99.90;;;;;;5053056;28;20607;-90
2021/07/24 09:35:47;;;;;;;14.93;12.80;;;24.80;99.90;;;;;;5049943;28;20664;-91
2021/07/24 09:38:27;;;;;;;13.70;12.40;;;24.90;99.90;;;;;;5043492;28;20964;-91
2021/07/24 09:40:54;;;;;;;15.93;12.20;;;25.00;99.90;;;;;;5040453;28;20657;-90
2021/07/24 09:43:32;;;;;;;13.57;12.20;;;25.20;99.90;;;;;;5027781;28;21166;-90
2021/07/24 09:46:11;;;;;;;13.73;12.03;;;25.40;99.90;;;;;;5033902;28;20646;-91
2021/07/24 09:48:39;;;;;;;13.07;11.93;;;25.40;99.90;;;;;;5028235;28;20646;-91
2021/07/24 09:51:06;;;;;;;14.00;12.67;;;25.60;99.90;;;;;;5022379;28;21035;-92
2021/07/24 09:53:37;;;;;;;14.43;13.00;;;25.80;99.90;;;;;;5028920;28;20649;-91
2021/07/24 09:56:05;;;;;;;14.00;12.80;;;25.90;99.90;;;;;;5047595;28;20994;-91
2021/07/24 09:58:32;;;;;;;11.90;10.90;;;26.00;99.90;;;;;;5042909;28;20623;-91
2021/07/24 10:01:03;;;;;;;13.23;12.03;;;26.10;99.90;;;;;;5052184;28;20687;-92
2021/07/24 10:03:35;;;;;;;13.60;12.50;;;26.10;99.90;;;;;;5045319;28;20605;-92
2021/07/24 10:06:06;;;;;;;14.67;13.17;;;26.10;99.90;;;;;;5046752;28;20622;-92
2021/07/24 10:08:33;;;;;;;13.03;11.93;;;26.20;99.90;;;;;;5031585;28;21018;-92
2021/07/24 10:11:00;;;;;;;14.70;13.47;;;26.30;99.90;;;;;;5037095;28;20616;-92
2021/07/24 10:13:27;;;;;;;13.47;12.30;;;26.50;99.90;;;;;;5040618;28;20682;-92
2021/07/24 10:15:54;;;;;;;14.10;12.70;;;26.50;99.90;;;;;;5035847;28;20670;-92
2021/07/24 10:18:23;;;;;;;13.63;12.23;;;26.50;99.90;;;;;;5036164;28;20627;-91
2021/07/24 10:20:52;;;;;;;12.23;11.10;;;26.50;99.90;;;;;;5035499;28;21048;-89
2021/07/24 10:23:21;;;;;;;13.73;12.27;;;26.70;99.90;;;;;;5031857;28;20630;-92
2021/07/24 10:25:57;;;;;;;12.80;11.67;;;26.90;99.90;;;;;;5021808;28;20620;-91
2021/07/24 10:28:29;;;;;;;12.53;11.43;;;26.90;99.90;;;;;;5022181;28;20647;-91
2021/07/24 10:30:58;;;;;;;12.57;11.47;;;27.30;99.90;;;;;;5018532;28;20616;-91
2021/07/24 10:33:30;;;;;;;12.73;11.53;;;27.60;99.90;;;;;;5025401;28;20617;-91
2021/07/24 10:36:13;;;;;;;13.33;12.03;;;27.20;99.90;;;;;;5022911;28;20672;-92
2021/07/24 10:38:57;;;;;;;12.37;11.30;;;27.10;99.90;;;;;;5027989;28;20630;-92
2021/07/24 10:41:51;;;;;;;14.63;12.23;;;27.30;99.90;;;;;;5024124;28;20643;-92
2021/07/24 10:44:36;;;;;;;14.23;13.00;;;27.30;99.90;;;;;;5017051;28;21197;-92
2021/07/24 10:47:19;;;;;;;13.27;11.70;;;27.30;99.90;;;;;;5020904;28;20634;-91
2021/07/24 10:50:05;;;;;;;13.23;11.87;;;27.20;99.90;;;;;;5022717;28;20632;-92
2021/07/24 10:53:14;;;;;;;12.70;11.60;;;27.30;99.90;;;;;;5033414;28;20638;-90
2021/07/24 10:55:47;;;;;;;12.30;11.20;;;27.20;99.90;;;;;;5023166;28;20669;-92
2021/07/24 10:58:15;;;;;;;13.93;12.83;;;27.00;99.90;;;;;;5019439;28;20655;-92
2021/07/24 11:00:51;;;;;;;12.73;11.53;;;26.90;99.90;;;;;;5024142;28;20741;-91
2021/07/24 11:03:39;;;;;;;13.63;12.07;;;27.10;99.90;;;;;;5021041;28;21053;-91
2021/07/24 11:06:30;;;;;;;13.33;11.90;;;27.40;99.90;;;;;;5028496;28;20654;-92
2021/07/24 11:09:28;;;;;;;13.50;12.30;;;27.70;99.90;;;;;;5024479;28;20984;-92
2021/07/24 11:12:10;;;;;;;15.03;12.00;;;27.70;99.90;;;;;;5018175;28;20628;-92
2021/07/24 11:14:55;;;;;;;13.37;12.07;;;27.90;99.90;;;;;;5019219;28;20666;-91
2021/07/24 11:17:22;;;;;;;12.43;11.33;;;28.20;99.90;;;;;;5024208;28;20716;-91
2021/07/24 11:20:26;;;;;;;12.83;11.63;;;28.60;99.90;;;;;;5027819;28;20715;-91
2021/07/24 11:23:05;;;;;;;11.60;10.60;;;28.90;99.60;;;;;;5025612;28;20626;-88
2021/07/24 11:25:36;;;;;;;12.43;11.33;;;29.30;96.80;;;;;;5024088;28;20626;-90
2021/07/24 11:28:05;;;;;;;13.13;11.93;;;29.40;96.70;;;;;;5022592;28;20635;-92
2021/07/24 11:30:32;;;;;;;13.10;11.93;;;29.30;97.30;;;;;;5022617;28;20614;-94
2021/07/24 11:32:59;;;;;;;11.13;10.13;;;28.90;97.20;;;;;;5023811;28;20963;-93
2021/07/24 11:35:31;;;;;;;10.80;9.70;;;28.60;97.50;;;;;;5029692;28;20666;-89
2021/07/24 11:37:59;;;;;;;10.03;9.13;;;28.40;97.60;;;;;;5021009;28;20648;-92
2021/07/24 11:40:27;;;;;;;9.67;8.77;;;28.30;98.30;;;;;;5022740;28;20664;-90
2021/07/24 11:43:02;;;;;;;13.47;10.47;;;28.20;98.60;;;;;;5023540;28;21036;-92
2021/07/24 11:45:32;;;;;;;10.50;9.40;;;28.10;98.80;;;;;;5021886;28;20711;-92
2021/07/24 11:48:10;;;;;;;9.87;9.07;;;27.80;98.50;;;;;;5028021;28;21556;-93
2021/07/24 11:50:37;;;;;;;8.10;7.47;;;27.50;98.40;;;;;;5026709;28;20668;-92
2021/07/24 11:53:05;;;;;;;9.00;8.17;;;27.40;98.70;;;;;;5020737;28;21224;-92
2021/07/24 11:55:33;;;;;;;11.67;7.87;;;27.40;97.60;;;;;;5020773;28;20665;-92
2021/07/24 11:58:02;;;;;;;9.17;8.30;;;27.40;97.90;;;;;;5023422;28;20738;-91
2021/07/24 12:00:36;;;;;;;9.93;9.03;;;27.40;98.10;;;;;;5020983;28;20612;-91
2021/07/24 12:03:17;;;;;;;8.70;7.80;;;27.30;98.60;;;;;;5026889;28;20675;-91
2021/07/24 12:05:45;;;;;;;7.70;7.00;;;27.50;97.80;;;;;;5026302;28;21091;-90
2021/07/24 12:08:12;;;;;;;8.30;7.33;;;27.60;95.60;;;;;;5024788;28;21253;-91
2021/07/24 12:10:42;;;;;;;8.50;7.50;;;28.00;95.20;;;;;;5028359;28;20614;-91
2021/07/24 12:13:10;;;;;;;8.60;7.80;;;28.20;95.30;;;;;;5029911;28;20623;-91
2021/07/24 12:16:00;;;;;;;9.33;7.03;;;28.40;94.00;;;;;;5022602;28;21002;-90
2021/07/24 12:18:28;;;;;;;7.77;6.90;;;28.80;93.10;;;;;;5026506;28;21010;-90
2021/07/24 12:21:07;;;;;;;9.03;8.07;;;29.40;91.50;;;;;;5023743;28;20626;-90
2021/07/24 12:23:35;;;;;;;8.00;7.30;;;30.40;90.70;;;;;;5023978;28;20691;-90
2021/07/24 12:26:13;;;;;;;7.80;6.83;;;31.10;87.30;;;;;;5021728;28;20721;-90
2021/07/24 12:28:41;;;;;;;10.83;7.50;;;31.70;85.00;;;;;;5025901;28;20622;-87
2021/07/24 12:31:28;;;;;;;7.77;7.10;;;32.40;82.90;;;;;;5024210;28;20630;-88
2021/07/24 12:33:57;;;;;;;8.53;7.83;;;32.50;82.70;;;;;;5018932;28;20997;-88
2021/07/24 12:36:24;;;;;;;9.50;8.43;;;32.20;82.90;;;;;;5018587;28;21152;-90
2021/07/24 12:38:52;;;;;;;10.03;7.70;;;32.90;79.20;;;;;;5018557;28;20627;-90
2021/07/24 12:41:30;;;;;;;8.73;8.07;;;33.30;77.80;;;;;;5030208;28;20649;-90
2021/07/24 12:44:07;;;;;;;8.10;7.40;;;33.10;77.50;;;;;;5021629;28;20710;-88
2021/07/24 12:46:37;;;;;;;8.40;7.70;;;33.10;77.10;;;;;;5032220;28;20649;-87
2021/07/24 12:49:05;;;;;;;8.50;7.80;;;33.70;75.80;;;;;;5022000;28;20628;-91
2021/07/24 12:51:37;;;;;;;8.60;7.80;;;33.80;74.60;;;;;;5023532;28;20621;-92
2021/07/24 12:54:15;;;;;;;7.67;7.07;;;33.00;76.20;;;;;;5028533;28;20622;-92
2021/07/24 12:56:46;;;;;;;8.37;6.90;;;32.80;75.50;;;;;;5023750;28;20703;-91
2021/07/24 12:59:13;;;;;;;8.00;7.20;;;32.10;77.60;;;;;;5013486;28;20630;-91
2021/07/24 13:01:50;;;;;;;8.40;7.60;;;31.10;80.30;;;;;;5030536;28;20644;-90
2021/07/24 13:04:18;;;;;;;8.87;7.97;;;30.50;81.60;;;;;;5027934;28;21163;-91
2021/07/24 13:06:45;;;;;;;9.43;8.27;;;30.40;85.80;;;;;;5024736;28;20737;-91
2021/07/24 13:09:12;;;;;;;9.20;8.50;;;29.80;90.10;;;;;;5023252;28;20963;-90
2021/07/24 13:11:39;;;;;;;9.93;7.77;;;29.40;89.40;;;;;;5018493;28;20625;-90
2021/07/24 13:14:06;;;;;;;7.97;7.27;;;28.90;90.50;;;;;;5024249;28;20635;-90
2021/07/24 13:16:34;;;;;;;9.00;8.30;;;28.50;92.10;;;;;;5019153;28;20673;-90
2021/07/24 13:19:03;;;;;;;10.77;8.90;;;28.20;93.00;;;;;;5025479;28;21225;-90
2021/07/24 13:21:30;;;;;;;8.87;8.07;;;28.30;92.90;;;;;;5027335;28;20630;-90
2021/07/24 13:23:58;;;;;;;8.30;7.63;;;28.20;93.10;;;;;;5026085;28;20640;-89
2021/07/24 13:29:12;;;;;;;8.13;7.33;;;27.90;93.30;;;;;;5024048;28;21023;-89
2021/07/24 13:31:38;;;;;;;8.53;7.63;;;27.60;93.20;;;;;;5024264;28;21059;-90
2021/07/24 13:34:08;;;;;;;7.80;7.00;;;27.50;95.10;;;;;;5026256;28;20622;-90
2021/07/24 13:36:36;;;;;;;8.30;7.50;;;27.50;94.40;;;;;;5023310;28;20777;-92
2021/07/24 13:39:03;;;;;;;7.30;6.70;;;27.50;95.30;;;;;;5015447;28;20635;-93
2021/07/24 13:41:30;;;;;;;7.13;6.53;;;27.60;93.90;;;;;;5024203;28;20639;-89
2021/07/24 13:43:56;;;;;;;7.93;7.23;;;27.50;93.70;;;;;;5022189;28;21002;-89
2021/07/24 13:46:23;;;;;;;7.23;6.50;;;27.60;93.60;;;;;;5024645;28;20639;-89
2021/07/24 13:48:50;;;;;;;8.60;7.40;;;27.80;93.20;;;;;;5023705;28;20622;-90
2021/07/24 13:51:25;;;;;;;7.73;7.13;;;28.10;93.00;;;;;;5019217;28;20607;-90
2021/07/24 13:53:52;;;;;;;7.80;7.20;;;28.50;91.80;;;;;;5023846;28;20667;-89
2021/07/24 13:56:19;;;;;;;7.87;7.17;;;28.80;91.50;;;;;;5024994;28;20670;-89
2021/07/24 13:58:46;;;;;;;8.60;7.70;;;29.40;90.80;;;;;;5021079;28;20611;-89
2021/07/24 14:01:13;;;;;;;8.60;7.07;;;30.30;89.20;;;;;;5027011;28;20623;-89
2021/07/24 14:03:40;;;;;;;8.37;7.67;;;30.50;85.60;;;;;;5018470;28;20642;-89
2021/07/24 14:06:07;;;;;;;9.33;8.40;;;31.10;84.00;;;;;;5022243;28;20658;-89
2021/07/24 14:08:38;;;;;;;8.10;7.40;;;31.10;86.20;;;;;;5023118;28;20634;-89
2021/07/24 14:11:17;;;;;;;10.80;8.03;;;31.50;81.90;;;;;;5016722;28;20667;-89
2021/07/24 14:13:44;;;;;;;10.90;7.83;;;31.80;82.50;;;;;;5019984;28;20734;-90
2021/07/24 14:16:12;;;;;;;14.00;6.60;;;31.70;82.10;;;;;;5022207;28;20675;-90
2021/07/24 14:18:39;;;;;;;7.50;6.87;;;31.80;81.90;;;;;;5032711;28;20633;-89
2021/07/24 14:21:08;;;;;;;9.37;7.00;;;32.20;80.70;;;;;;5023080;28;20627;-89
2021/07/24 14:23:36;;;;;;;7.83;7.27;;;32.80;78.40;;;;;;5018626;28;20620;-90